createdAt,value
2023-01-05T00:00:12.767Z,2.25
2023-01-05T00:02:18.796Z,2.38
2023-01-05T00:04:26.212Z,2.95
2023-01-05T00:06:28.551Z,2.63
2023-01-05T00:08:36.551Z,3.13
2023-01-05T00:10:42.920Z,2.97
2023-01-05T00:12:48.423Z,2.58
2023-01-05T00:14:53.692Z,2.60
2023-01-05T00:16:59.016Z,2.38
2023-01-05T00:19:04.390Z,2.70
2023-01-05T00:21:18.340Z,2.58
2023-01-05T00:23:21.302Z,2.80
2023-01-05T00:25:26.504Z,2.45
2023-01-05T00:27:29.402Z,3.45
2023-01-05T00:29:31.611Z,2.60
2023-01-05T00:31:33.853Z,2.60
2023-01-05T00:33:36.055Z,3.10
2023-01-05T00:35:39.800Z,2.60
2023-01-05T00:37:43.058Z,2.88
2023-01-05T00:39:45.271Z,3.80
2023-01-05T00:41:47.520Z,2.35
2023-01-05T00:43:49.783Z,2.58
2023-01-05T00:45:52.075Z,2.92
2023-01-05T00:47:55.368Z,3.10
2023-01-05T00:49:57.704Z,2.38
2023-01-05T00:52:00.069Z,2.38
2023-01-05T00:54:02.292Z,5.28
2023-01-05T00:56:04.934Z,3.53
2023-01-05T00:58:07.113Z,2.78
2023-01-05T01:00:13.748Z,1.95
2023-01-05T01:02:16.459Z,3.45
2023-01-05T01:04:19.836Z,2.28
2023-01-05T01:06:22.520Z,3.55
2023-01-05T01:08:24.940Z,3.25
2023-01-05T01:10:27.217Z,2.75
2023-01-05T01:12:29.479Z,3.00
2023-01-05T01:14:31.843Z,2.35
2023-01-05T01:16:35.332Z,3.85
2023-01-05T01:18:37.693Z,3.45
2023-01-05T01:20:40.263Z,3.75
2023-01-05T01:22:42.449Z,3.35
2023-01-05T01:24:44.612Z,2.85
2023-01-05T01:26:47.170Z,2.70
2023-01-05T01:28:49.619Z,3.90
2023-01-05T01:30:51.916Z,3.15
2023-01-05T01:32:54.155Z,2.67
2023-01-05T01:34:56.436Z,3.22
2023-01-05T01:36:59.354Z,3.97
2023-01-05T01:39:01.574Z,3.83
2023-01-05T01:41:04.026Z,2.85
2023-01-05T01:43:12.564Z,3.15
2023-01-05T01:45:20.816Z,3.00
2023-01-05T01:47:28.415Z,3.75
2023-01-05T01:49:30.571Z,2.92
2023-01-05T01:51:37.359Z,3.28
2023-01-05T01:53:43.362Z,3.83
2023-01-05T01:55:45.691Z,3.08
2023-01-05T01:57:50.674Z,3.60
2023-01-05T01:59:53.137Z,3.13
2023-01-05T02:02:00.157Z,3.15
2023-01-05T02:04:04.347Z,4.03
2023-01-05T02:06:07.391Z,3.58
2023-01-05T02:08:13.441Z,2.75
2023-01-05T02:10:19.352Z,3.17
2023-01-05T02:12:26.057Z,3.67
2023-01-05T02:14:30.021Z,2.78
2023-01-05T02:16:36.819Z,2.97
2023-01-05T02:18:51.796Z,3.55
2023-01-05T02:21:02.192Z,2.67
2023-01-05T02:23:06.160Z,4.15
2023-01-05T02:25:19.010Z,4.78
2023-01-05T02:27:27.585Z,2.85
2023-01-05T02:29:42.961Z,2.95
2023-01-05T02:31:55.395Z,3.38
2023-01-05T02:34:03.403Z,2.80
2023-01-05T02:36:09.260Z,3.33
2023-01-05T02:38:17.651Z,3.35
2023-01-05T02:40:25.539Z,3.40
2023-01-05T02:42:33.113Z,3.08
2023-01-05T02:44:35.378Z,2.65
2023-01-05T02:46:38.086Z,3.10
2023-01-05T02:48:42.450Z,3.72
2023-01-05T02:50:48.156Z,3.80
2023-01-05T02:52:59.612Z,3.63
2023-01-05T02:55:06.492Z,2.83
2023-01-05T02:57:14.264Z,3.42
2023-01-05T02:59:24.646Z,3.38
2023-01-05T03:01:32.822Z,3.70
2023-01-05T03:03:41.042Z,3.20
2023-01-05T03:05:52.490Z,2.75
2023-01-05T03:08:01.148Z,3.50
2023-01-05T03:10:24.574Z,4.45
2023-01-05T03:12:36.881Z,3.03
2023-01-05T03:14:46.672Z,2.20
2023-01-05T03:16:51.387Z,3.58
2023-01-05T03:18:58.772Z,3.00
2023-01-05T03:21:02.249Z,3.75
2023-01-05T03:23:12.977Z,3.70
2023-01-05T03:25:22.866Z,2.78
2023-01-05T03:27:28.559Z,4.23
2023-01-05T03:29:34.050Z,3.15
2023-01-05T03:31:48.051Z,2.50
2023-01-05T03:34:04.777Z,3.53
2023-01-05T03:36:09.464Z,3.08
2023-01-05T03:38:18.247Z,3.45
2023-01-05T03:40:25.926Z,3.17
2023-01-05T03:42:30.613Z,3.28
2023-01-05T03:44:36.672Z,3.90
2023-01-05T03:46:41.366Z,3.40
2023-01-05T03:48:43.986Z,3.90
2023-01-05T03:50:47.760Z,3.55
2023-01-05T03:52:50.044Z,2.78
2023-01-05T03:54:52.189Z,3.28
2023-01-05T03:56:54.413Z,2.65
2023-01-05T03:58:56.795Z,3.50
2023-01-05T04:00:58.911Z,3.65
2023-01-05T04:03:01.396Z,3.40
2023-01-05T04:05:03.700Z,4.20
2023-01-05T04:07:07.764Z,3.30
2023-01-05T04:09:10.030Z,4.68
2023-01-05T04:11:16.250Z,3.55
2023-01-05T04:13:18.683Z,3.25
2023-01-05T04:15:20.979Z,4.25
2023-01-05T04:17:23.322Z,3.50
2023-01-05T04:19:25.544Z,3.80
2023-01-05T04:21:27.915Z,3.03
2023-01-05T04:23:30.212Z,3.20
2023-01-05T04:25:32.473Z,3.35
2023-01-05T04:27:35.003Z,2.97
2023-01-05T04:29:37.682Z,4.05
2023-01-05T04:31:39.999Z,3.63
2023-01-05T04:33:45.613Z,3.40
2023-01-05T04:35:48.256Z,3.88
2023-01-05T04:37:50.563Z,3.58
2023-01-05T04:39:52.772Z,3.38
2023-01-05T04:41:54.998Z,3.53
2023-01-05T04:43:57.299Z,3.88
2023-01-05T04:45:59.638Z,4.75
2023-01-05T04:48:01.919Z,3.15
2023-01-05T04:50:04.872Z,3.45
2023-01-05T04:52:07.972Z,4.53
2023-01-05T04:54:10.507Z,3.15
2023-01-05T04:56:12.711Z,3.45
2023-01-05T04:58:15.112Z,4.78
2023-01-05T05:00:17.538Z,3.38
2023-01-05T05:02:20.070Z,3.72
2023-01-05T05:04:22.394Z,3.30
2023-01-05T05:06:24.699Z,2.97
2023-01-05T05:08:26.929Z,3.25
2023-01-05T05:10:29.327Z,3.50
2023-01-05T05:12:31.632Z,2.75
2023-01-05T05:14:33.878Z,4.10
2023-01-05T05:16:36.062Z,3.30
2023-01-05T05:18:38.480Z,3.08
2023-01-05T05:20:44.565Z,2.75
2023-01-05T05:22:46.822Z,3.83
2023-01-05T05:24:49.171Z,3.65
2023-01-05T05:26:51.476Z,3.15
2023-01-05T05:28:53.732Z,3.38
2023-01-05T05:30:57.369Z,3.90
2023-01-05T05:32:59.678Z,3.83
2023-01-05T05:35:02.035Z,2.78
2023-01-05T05:37:04.258Z,3.50
2023-01-05T05:39:06.532Z,3.72
2023-01-05T05:41:08.713Z,3.67
2023-01-05T05:43:10.936Z,4.35
2023-01-05T05:45:13.117Z,4.43
2023-01-05T05:47:15.299Z,3.05
2023-01-05T05:49:17.673Z,2.90
2023-01-05T05:51:19.870Z,3.72
2023-01-05T05:53:22.222Z,2.88
2023-01-05T05:55:24.474Z,3.70
2023-01-05T05:57:26.700Z,2.72
2023-01-05T05:59:28.871Z,4.03
2023-01-05T06:01:31.094Z,3.65
2023-01-05T06:03:33.400Z,3.80
2023-01-05T06:05:35.822Z,4.15
2023-01-05T06:07:38.102Z,3.30
2023-01-05T06:09:40.352Z,3.22
2023-01-05T06:11:42.571Z,3.72
2023-01-05T06:13:44.931Z,2.65
2023-01-05T06:15:47.363Z,4.70
2023-01-05T06:17:49.755Z,3.55
2023-01-05T06:19:52.043Z,3.55
2023-01-05T06:21:54.231Z,3.90
2023-01-05T06:23:56.375Z,3.22
2023-01-05T06:25:58.633Z,4.35
2023-01-05T06:28:01.210Z,3.20
2023-01-05T06:30:04.684Z,3.28
2023-01-05T06:32:06.997Z,3.42
2023-01-05T06:34:09.235Z,4.78
2023-01-05T06:36:11.548Z,3.42
2023-01-05T06:38:16.350Z,3.17
2023-01-05T06:40:18.722Z,3.00
2023-01-05T06:42:23.535Z,3.47
2023-01-05T06:44:26.307Z,3.55
2023-01-05T06:46:28.615Z,2.95
2023-01-05T06:48:30.880Z,3.30
2023-01-05T06:50:33.109Z,3.35
2023-01-05T06:52:40.036Z,2.92
2023-01-05T06:54:42.372Z,4.38
2023-01-05T06:56:44.649Z,4.15
2023-01-05T06:58:46.852Z,2.95
2023-01-05T07:00:49.128Z,3.70
2023-01-05T07:02:51.411Z,4.10
2023-01-05T07:04:53.601Z,3.28
2023-01-05T07:06:55.988Z,3.30
2023-01-05T07:08:58.245Z,2.90
2023-01-05T07:11:00.501Z,4.75
2023-01-05T07:13:02.774Z,3.50
2023-01-05T07:15:06.359Z,4.13
2023-01-05T07:17:08.765Z,2.65
2023-01-05T07:19:11.250Z,3.00
2023-01-05T07:21:13.494Z,2.90
2023-01-05T07:23:15.771Z,4.00
2023-01-05T07:25:18.581Z,4.22
2023-01-05T07:27:20.912Z,3.58
2023-01-05T07:29:23.145Z,3.10
2023-01-05T07:31:25.362Z,3.35
2023-01-05T07:33:27.646Z,3.25
2023-01-05T07:35:30.001Z,3.47
2023-01-05T07:37:32.251Z,3.40
2023-01-05T07:39:34.803Z,3.45
2023-01-05T07:41:37.324Z,3.53
2023-01-05T07:43:39.611Z,3.63
2023-01-05T07:45:42.377Z,3.33
2023-01-05T07:47:44.828Z,2.67
2023-01-05T07:49:47.176Z,3.10
2023-01-05T07:51:49.621Z,4.28
2023-01-05T07:53:51.936Z,4.00
2023-01-05T07:55:59.444Z,3.95
2023-01-05T07:58:01.774Z,3.75
2023-01-05T08:00:05.500Z,4.15
2023-01-05T08:02:09.261Z,4.45
2023-01-05T08:04:11.736Z,3.60
2023-01-05T08:06:18.895Z,2.53
2023-01-05T08:08:24.587Z,3.03
2023-01-05T08:10:30.257Z,2.33
2023-01-05T08:12:32.696Z,2.85
2023-01-05T08:14:34.990Z,4.40
2023-01-05T08:16:37.266Z,3.20
2023-01-05T08:18:39.632Z,2.97
2023-01-05T08:20:41.867Z,3.60
2023-01-05T08:22:44.130Z,3.92
2023-01-05T08:24:46.380Z,4.40
2023-01-05T08:26:51.659Z,3.38
2023-01-05T08:28:54.268Z,2.65
2023-01-05T08:31:02.487Z,3.15
2023-01-05T08:33:05.614Z,4.03
2023-01-05T08:35:08.359Z,3.15
2023-01-05T08:37:10.670Z,2.75
2023-01-05T08:39:13.573Z,2.63
2023-01-05T08:41:19.228Z,3.08
2023-01-05T08:43:22.260Z,2.70
2023-01-05T08:45:24.673Z,3.67
2023-01-05T08:47:28.610Z,3.53
2023-01-05T08:49:31.315Z,2.42
2023-01-05T08:51:34.071Z,2.90
2023-01-05T08:53:36.374Z,3.05
2023-01-05T08:55:38.574Z,2.83
2023-01-05T08:57:41.003Z,2.72
2023-01-05T08:59:43.202Z,2.70
2023-01-05T09:01:45.862Z,2.08
2023-01-05T09:03:48.556Z,2.10
2023-01-05T09:05:54.428Z,2.22
2023-01-05T09:07:57.149Z,2.53
2023-01-05T09:09:59.488Z,2.63
2023-01-05T09:12:01.735Z,3.63
2023-01-05T09:14:04.264Z,1.75
2023-01-05T09:16:08.569Z,2.80
2023-01-05T09:18:10.940Z,2.65
2023-01-05T09:20:13.251Z,2.67
2023-01-05T09:22:15.519Z,2.20
2023-01-05T09:24:17.860Z,1.73
2023-01-05T09:26:20.336Z,2.22
2023-01-05T09:28:22.721Z,2.17
2023-01-05T09:30:25.110Z,3.35
2023-01-05T09:32:27.364Z,2.05
2023-01-05T09:34:29.951Z,2.15
2023-01-05T09:36:32.702Z,1.30
2023-01-05T09:38:35.475Z,2.47
2023-01-05T09:40:44.056Z,2.70
2023-01-05T09:42:47.128Z,1.25
2023-01-05T09:44:58.933Z,2.20
2023-01-05T09:47:13.816Z,1.40
2023-01-05T09:49:17.634Z,2.08
2023-01-05T09:51:20.371Z,1.80
2023-01-05T09:53:30.481Z,1.83
2023-01-05T09:55:35.391Z,1.70
2023-01-05T09:57:37.848Z,1.60
2023-01-05T09:59:47.721Z,1.52
2023-01-05T10:01:52.099Z,1.25
2023-01-05T10:04:04.642Z,1.45
2023-01-05T10:06:13.968Z,1.60
2023-01-05T10:08:23.235Z,1.67
2023-01-05T10:10:36.391Z,1.50
2023-01-05T10:12:45.172Z,1.30
2023-01-05T10:14:53.379Z,1.95
2023-01-05T10:17:30.184Z,1.65
2023-01-05T10:19:20.921Z,1.25
2023-01-05T10:21:34.140Z,1.02
2023-01-05T10:23:38.108Z,1.52
2023-01-05T10:25:48.053Z,0.98
2023-01-05T10:27:56.717Z,1.47
2023-01-05T10:30:11.942Z,1.42
2023-01-05T10:32:18.740Z,1.10
2023-01-05T10:34:23.781Z,1.08
2023-01-05T10:37:06.561Z,1.73
2023-01-05T10:39:01.260Z,1.00
2023-01-05T10:41:09.761Z,1.00
2023-01-05T10:43:19.058Z,0.85
2023-01-05T10:45:23.340Z,1.48
2023-01-05T10:47:29.126Z,0.93
2023-01-05T10:49:32.942Z,1.10
2023-01-05T10:51:36.951Z,0.80
2023-01-05T10:53:42.035Z,0.73
2023-01-05T10:55:50.498Z,1.05
2023-01-05T10:57:52.679Z,0.63
2023-01-05T10:59:59.415Z,0.65
2023-01-05T11:02:02.131Z,0.80
2023-01-05T11:06:34.922Z,0.60
2023-01-05T11:08:37.631Z,0.80
2023-01-05T11:10:48.621Z,0.75
2023-01-05T11:12:55.120Z,0.68
2023-01-05T11:15:01.194Z,0.85
2023-01-05T11:17:07.244Z,0.77
2023-01-05T11:19:16.821Z,1.10
2023-01-05T11:21:23.671Z,0.68
2023-01-05T11:23:36.849Z,1.00
2023-01-05T11:25:40.124Z,0.60
2023-01-05T11:27:42.340Z,0.88
2023-01-05T11:29:44.758Z,1.05
2023-01-05T11:31:53.163Z,0.60
2023-01-05T11:33:58.668Z,0.98
2023-01-05T11:36:03.243Z,1.50
2023-01-05T11:38:06.598Z,0.88
2023-01-05T11:40:17.685Z,0.80
2023-01-05T11:42:26.461Z,0.88
2023-01-05T11:44:29.471Z,0.65
2023-01-05T11:48:52.533Z,0.70
2023-01-05T11:50:57.782Z,0.80
2023-01-05T11:53:02.707Z,0.95
2023-01-05T11:55:16.103Z,1.10
2023-01-05T11:57:22.928Z,1.23
2023-01-05T11:59:30.264Z,0.60
2023-01-05T12:01:47.330Z,0.77
2023-01-05T12:04:01.953Z,0.90
2023-01-05T12:06:14.561Z,0.85
2023-01-05T12:08:25.119Z,0.93
2023-01-05T12:10:31.982Z,0.60
2023-01-05T12:12:47.031Z,0.80
2023-01-05T12:14:58.343Z,0.40
2023-01-05T12:17:09.003Z,0.65
2023-01-05T12:21:22.720Z,0.75
2023-01-05T12:23:29.649Z,0.52
2023-01-05T12:25:45.116Z,0.75
2023-01-05T12:27:53.511Z,0.60
2023-01-05T12:35:09.554Z,0.70
2023-01-05T12:37:18.251Z,0.40
2023-01-05T12:39:31.569Z,0.57
2023-01-05T12:41:38.648Z,0.57
2023-01-05T12:43:44.357Z,0.52
2023-01-05T12:45:52.886Z,0.82
2023-01-05T12:48:03.766Z,0.70
2023-01-05T12:50:20.096Z,0.98
2023-01-05T12:52:24.680Z,0.77
2023-01-05T12:54:33.865Z,0.68
2023-01-05T12:56:43.650Z,1.00
2023-01-05T12:58:56.452Z,0.60
2023-01-05T13:01:01.223Z,0.52
2023-01-05T13:03:13.512Z,1.02
2023-01-05T13:05:20.531Z,0.65
2023-01-05T13:07:29.529Z,0.47
2023-01-05T13:09:33.366Z,0.88
2023-01-05T13:11:41.040Z,0.75
2023-01-05T13:13:49.459Z,0.90
2023-01-05T13:15:58.194Z,0.93
2023-01-05T13:18:04.473Z,0.70
2023-01-05T13:20:13.379Z,0.93
2023-01-05T13:22:24.219Z,0.60
2023-01-05T13:26:38.037Z,1.13
2023-01-05T13:28:40.801Z,0.73
2023-01-05T13:30:55.943Z,0.73
2023-01-05T13:33:02.101Z,0.50
2023-01-05T13:35:08.627Z,1.00
2023-01-05T13:37:23.330Z,1.33
2023-01-05T13:39:34.213Z,1.00
2023-01-05T13:41:38.095Z,1.52
2023-01-05T13:43:43.827Z,1.05
2023-01-05T13:45:50.839Z,1.15
2023-01-05T13:47:57.497Z,1.15
2023-01-05T13:50:03.409Z,1.90
2023-01-05T13:52:12.025Z,1.00
2023-01-05T13:54:19.485Z,1.05
2023-01-05T13:56:26.911Z,1.45
2023-01-05T13:58:38.609Z,0.98
2023-01-05T14:00:43.938Z,1.50
2023-01-05T14:02:57.192Z,1.13
2023-01-05T14:04:59.952Z,1.27
2023-01-05T14:07:07.460Z,1.02
2023-01-05T14:09:18.532Z,1.30
2023-01-05T14:11:24.112Z,1.58
2023-01-05T14:13:32.531Z,1.08
2023-01-05T14:15:37.918Z,1.55
2023-01-05T14:17:46.368Z,1.00
2023-01-05T14:19:53.459Z,1.33
2023-01-05T14:22:00.139Z,1.58
2023-01-05T14:24:02.319Z,1.00
2023-01-05T14:26:06.965Z,1.35
2023-01-05T14:28:15.503Z,2.13
2023-01-05T14:30:21.926Z,1.73
2023-01-05T14:32:30.403Z,1.10
2023-01-05T14:34:32.775Z,1.60
2023-01-05T14:36:39.989Z,1.80
2023-01-05T14:38:48.510Z,1.30
2023-01-05T14:40:55.976Z,1.42
2023-01-05T14:42:59.396Z,1.63
2023-01-05T14:45:07.129Z,1.48
2023-01-05T14:47:10.512Z,1.42
2023-01-05T14:49:23.204Z,1.08
2023-01-05T14:51:29.895Z,1.40
2023-01-05T14:53:38.372Z,1.88
2023-01-05T14:56:03.574Z,1.50
2023-01-05T14:58:13.071Z,1.50
2023-01-05T15:00:23.743Z,2.25
2023-01-05T15:02:34.419Z,1.95
2023-01-05T15:04:39.497Z,1.63
2023-01-05T15:06:45.346Z,1.45
2023-01-05T15:08:52.007Z,2.15
2023-01-05T15:11:04.620Z,1.88
2023-01-05T15:13:13.516Z,1.42
2023-01-05T15:15:20.800Z,1.20
2023-01-05T15:17:26.751Z,0.98
2023-01-05T15:19:31.736Z,1.38
2023-01-05T15:21:43.839Z,1.40
2023-01-05T15:23:49.880Z,1.40
2023-01-05T15:26:08.041Z,2.33
2023-01-05T15:28:23.554Z,1.40
2023-01-05T15:30:30.582Z,2.15
2023-01-05T15:32:39.439Z,1.33
2023-01-05T15:34:47.669Z,1.15
2023-01-05T15:36:53.226Z,1.65
2023-01-05T15:38:55.730Z,1.85
2023-01-05T15:41:02.731Z,1.15
2023-01-05T15:43:05.609Z,1.75
2023-01-05T15:45:18.145Z,1.65
2023-01-05T15:47:23.042Z,1.50
2023-01-05T15:49:29.815Z,2.88
2023-01-05T15:51:33.621Z,1.67
2023-01-05T15:53:41.491Z,2.38
2023-01-05T15:55:46.777Z,1.75
2023-01-05T15:57:55.277Z,1.63
2023-01-05T15:59:57.610Z,1.50
2023-01-05T16:02:00.366Z,2.22
2023-01-05T16:04:09.187Z,1.27
2023-01-05T16:06:16.427Z,1.70
2023-01-05T16:08:18.818Z,1.17
2023-01-05T16:10:27.278Z,1.75
2023-01-05T16:12:29.595Z,1.10
2023-01-05T16:14:36.814Z,1.70
2023-01-05T16:16:52.589Z,1.45
2023-01-05T16:19:01.105Z,1.40
2023-01-05T16:21:16.103Z,1.88
2023-01-05T16:23:28.800Z,1.67
2023-01-05T16:25:42.200Z,1.40
2023-01-05T16:27:48.675Z,1.67
2023-01-05T16:29:51.247Z,1.90
2023-01-05T16:31:55.747Z,1.05
2023-01-05T16:34:02.210Z,1.80
2023-01-05T16:36:10.650Z,1.20
2023-01-05T16:38:14.171Z,2.00
2023-01-05T16:40:20.979Z,1.85
2023-01-05T16:42:26.651Z,1.17
2023-01-05T16:44:33.331Z,1.95
2023-01-05T16:46:40.248Z,1.05
2023-01-05T16:48:47.282Z,1.00
2023-01-05T16:50:55.223Z,1.52
2023-01-05T16:53:00.448Z,1.65
2023-01-05T16:55:10.680Z,1.30
2023-01-05T16:57:21.032Z,1.38
2023-01-05T16:59:34.148Z,2.83
2023-01-05T17:01:44.129Z,1.55
2023-01-05T17:03:46.857Z,0.90
2023-01-05T17:05:52.690Z,1.88
2023-01-05T17:08:01.076Z,1.35
2023-01-05T17:10:03.635Z,1.00
2023-01-05T17:12:06.140Z,1.00
2023-01-05T17:14:09.810Z,1.40
2023-01-05T17:16:13.508Z,1.00
2023-01-05T17:18:18.694Z,1.20
2023-01-05T17:20:21.012Z,1.25
2023-01-05T17:22:23.291Z,1.30
2023-01-05T17:24:27.713Z,0.82
2023-01-05T17:26:36.539Z,1.27
2023-01-05T17:28:42.040Z,1.33
2023-01-05T17:30:46.498Z,1.33
2023-01-05T17:32:52.256Z,1.95
2023-01-05T17:34:54.535Z,1.55
2023-01-05T17:36:59.386Z,0.93
2023-01-05T17:39:01.937Z,1.23
2023-01-05T17:41:04.409Z,1.10
2023-01-05T17:43:07.417Z,1.25
2023-01-05T17:45:13.351Z,1.40
2023-01-05T17:47:15.662Z,1.08
2023-01-05T17:49:21.479Z,1.27
2023-01-05T17:51:23.819Z,1.05
2023-01-05T17:53:26.200Z,1.70
2023-01-05T17:55:29.850Z,1.33
2023-01-05T17:57:32.180Z,1.35
2023-01-05T17:59:34.478Z,1.00
2023-01-05T18:01:36.695Z,1.00
2023-01-05T18:03:39.073Z,0.95
2023-01-05T18:07:43.936Z,1.25
2023-01-05T18:09:46.015Z,1.10
2023-01-05T18:11:50.809Z,0.80
2023-01-05T18:13:54.034Z,0.85
2023-01-05T18:18:00.446Z,0.93
2023-01-05T18:20:03.001Z,1.23
2023-01-05T18:22:06.048Z,1.02
2023-01-05T18:24:08.387Z,1.20
2023-01-05T18:26:10.991Z,0.65
2023-01-05T18:28:13.577Z,0.80
2023-01-05T18:30:15.959Z,1.35
2023-01-05T18:32:18.539Z,1.23
2023-01-05T18:34:21.060Z,0.77
2023-01-05T18:36:23.242Z,0.90
2023-01-05T18:38:25.527Z,0.80
2023-01-05T18:40:29.138Z,0.80
2023-01-05T18:42:31.362Z,1.20
2023-01-05T18:44:33.603Z,1.13
2023-01-05T18:46:36.168Z,1.33
2023-01-05T18:48:38.563Z,1.35
2023-01-05T18:50:44.961Z,0.60
2023-01-05T18:52:48.965Z,0.50
2023-01-05T18:54:51.317Z,1.15
2023-01-05T18:56:53.620Z,1.30
2023-01-05T18:58:56.372Z,1.00
2023-01-05T19:00:58.675Z,1.02
2023-01-05T19:03:01.115Z,0.60
2023-01-05T19:05:03.388Z,1.00
2023-01-05T19:07:05.679Z,1.13
2023-01-05T19:09:09.638Z,0.82
2023-01-05T19:11:14.212Z,1.55
2023-01-05T19:13:16.515Z,0.68
2023-01-05T19:15:18.748Z,1.05
2023-01-05T19:17:21.000Z,1.17
2023-01-05T19:19:23.415Z,0.70
2023-01-05T19:21:26.692Z,1.00
2023-01-05T19:23:29.184Z,1.88
2023-01-05T19:25:31.439Z,1.02
2023-01-05T19:27:33.713Z,0.85
2023-01-05T19:29:36.026Z,1.80
2023-01-05T19:31:39.039Z,0.95
2023-01-05T19:33:42.393Z,1.08
2023-01-05T19:35:44.651Z,1.20
2023-01-05T19:37:47.382Z,1.20
2023-01-05T19:39:49.665Z,1.83
2023-01-05T19:41:52.113Z,1.30
2023-01-05T19:43:56.221Z,1.10
2023-01-05T19:46:00.459Z,1.00
2023-01-05T19:48:02.714Z,1.42
2023-01-05T19:50:05.714Z,0.75
2023-01-05T19:52:07.975Z,1.05
2023-01-05T19:54:11.353Z,1.00
2023-01-05T19:56:15.831Z,1.27
2023-01-05T19:58:18.063Z,1.75
2023-01-05T20:00:20.314Z,0.98
2023-01-05T20:02:22.692Z,1.33
2023-01-05T20:04:25.077Z,1.08
2023-01-05T20:06:30.684Z,1.58
2023-01-05T20:08:33.799Z,2.03
2023-01-05T20:10:38.256Z,0.80
2023-01-05T20:12:40.832Z,1.38
2023-01-05T20:14:44.041Z,0.68
2023-01-05T20:16:50.189Z,1.60
2023-01-05T20:18:52.834Z,1.45
2023-01-05T20:20:55.105Z,1.25
2023-01-05T20:22:57.408Z,2.10
2023-01-05T20:24:59.853Z,1.30
2023-01-05T20:27:07.870Z,1.48
2023-01-05T20:29:10.651Z,1.25
2023-01-05T20:31:19.194Z,1.02
2023-01-05T20:33:21.490Z,0.60
2023-01-05T20:35:23.959Z,0.70
2023-01-05T20:37:29.345Z,1.13
2023-01-05T20:39:32.723Z,1.48
2023-01-05T20:41:39.204Z,0.60
2023-01-05T20:43:44.694Z,1.60
2023-01-05T20:45:47.102Z,1.15
2023-01-05T20:47:49.378Z,1.15
2023-01-05T20:49:51.896Z,0.80
2023-01-05T20:51:54.489Z,1.33
2023-01-05T20:53:59.369Z,1.60
2023-01-05T20:56:06.117Z,0.90
2023-01-05T20:58:08.660Z,0.50
2023-01-05T21:00:14.182Z,0.75
2023-01-05T21:02:23.338Z,0.82
2023-01-05T21:04:27.835Z,0.70
2023-01-05T21:06:30.376Z,0.80
2023-01-05T21:08:35.167Z,0.55
2023-01-05T21:10:39.297Z,0.75
2023-01-05T21:12:42.235Z,0.73
2023-01-05T21:14:44.957Z,1.20
2023-01-05T21:16:50.427Z,0.93
2023-01-05T21:18:53.109Z,0.70
2023-01-05T21:20:55.747Z,0.80
2023-01-05T21:22:58.371Z,0.70
2023-01-05T21:25:01.570Z,0.68
2023-01-05T21:27:04.310Z,0.95
2023-01-05T21:29:08.147Z,0.65
2023-01-05T21:31:14.878Z,1.20
2023-01-05T21:33:17.524Z,0.88
2023-01-05T21:35:19.802Z,1.75
2023-01-05T21:37:22.101Z,0.98
2023-01-05T21:39:26.223Z,0.85
2023-01-05T21:41:32.223Z,0.98
2023-01-05T21:43:35.661Z,0.77
2023-01-05T21:45:40.883Z,1.40
2023-01-05T21:47:43.188Z,1.00
2023-01-05T21:49:45.982Z,0.73
2023-01-05T21:51:51.599Z,1.02
2023-01-05T21:53:56.953Z,1.08
2023-01-05T21:56:02.836Z,0.43
2023-01-05T21:58:05.272Z,0.73
2023-01-05T22:00:08.949Z,0.57
2023-01-05T22:02:11.799Z,1.98
2023-01-05T22:04:14.266Z,1.00
2023-01-05T22:06:16.918Z,0.80
2023-01-05T22:08:19.564Z,2.03
2023-01-05T22:10:21.929Z,3.22
2023-01-05T22:12:24.244Z,1.23
2023-01-05T22:14:26.565Z,0.60
2023-01-05T22:16:28.958Z,0.73
2023-01-05T22:18:31.735Z,0.65
2023-01-05T22:20:34.117Z,0.77
2023-01-05T22:22:36.371Z,1.05
2023-01-05T22:24:39.021Z,1.02
2023-01-05T22:26:41.295Z,0.70
2023-01-05T22:28:45.472Z,1.00
2023-01-05T22:30:47.731Z,0.63
2023-01-05T22:32:50.113Z,0.85
2023-01-05T22:34:52.447Z,0.90
2023-01-05T22:36:54.757Z,0.93
2023-01-05T22:38:57.719Z,0.90
2023-01-05T22:41:00.591Z,0.60
2023-01-05T22:43:02.937Z,0.95
2023-01-05T22:45:05.491Z,0.60
2023-01-05T22:47:07.849Z,0.60
2023-01-05T22:49:14.353Z,0.70
2023-01-05T22:51:18.219Z,0.60
2023-01-05T22:53:20.505Z,0.88
2023-01-05T22:55:22.736Z,0.68
2023-01-05T22:57:25.057Z,0.73
2023-01-05T22:59:28.645Z,0.75
2023-01-05T23:01:34.356Z,0.50
2023-01-05T23:03:36.694Z,0.50
2023-01-05T23:05:39.775Z,0.40
2023-01-05T23:07:42.005Z,0.60
2023-01-05T23:09:44.173Z,0.47
2023-01-05T23:11:47.155Z,0.70
2023-01-05T23:13:49.946Z,0.73
2023-01-05T23:15:55.032Z,0.50
2023-01-05T23:17:57.344Z,0.50
2023-01-05T23:19:59.610Z,0.60
2023-01-05T23:22:01.911Z,0.60
2023-01-05T23:24:05.252Z,0.85
2023-01-05T23:26:09.460Z,0.65
2023-01-05T23:28:11.801Z,0.70
2023-01-05T23:30:14.234Z,0.70
2023-01-05T23:32:18.888Z,1.17
2023-01-05T23:34:21.285Z,0.60
2023-01-05T23:36:24.192Z,0.80
2023-01-05T23:38:28.039Z,0.47
2023-01-05T23:40:30.240Z,1.27
2023-01-05T23:42:35.628Z,1.05
2023-01-05T23:44:37.903Z,0.50
2023-01-05T23:46:41.270Z,0.57
2023-01-05T23:48:44.208Z,0.57
2023-01-05T23:50:48.505Z,0.60
2023-01-05T23:52:50.790Z,0.98
2023-01-05T23:54:53.159Z,0.40
2023-01-05T23:56:55.411Z,0.40
2023-01-05T23:59:04.152Z,0.40
